createdAt,value
2023-04-10T00:00:38.460Z,26.35
2023-04-10T00:03:05.886Z,24.55
2023-04-10T00:05:33.026Z,30.17
2023-04-10T00:07:59.761Z,26.45
2023-04-10T00:10:28.647Z,28.90
2023-04-10T00:12:56.705Z,29.35
2023-04-10T00:15:23.862Z,26.13
2023-04-10T00:17:55.484Z,29.77
2023-04-10T00:20:23.649Z,30.23
2023-04-10T00:22:50.620Z,27.00
2023-04-10T00:25:18.221Z,27.92
2023-04-10T00:27:45.128Z,26.33
2023-04-10T00:30:12.190Z,24.05
2023-04-10T00:32:39.035Z,27.83
2023-04-10T00:35:07.327Z,27.85
2023-04-10T00:37:34.177Z,30.35
2023-04-10T00:40:01.646Z,31.52
2023-04-10T00:42:28.492Z,33.88
2023-04-10T00:44:56.669Z,29.40
2023-04-10T00:47:23.613Z,29.40
2023-04-10T00:49:50.762Z,29.67
2023-04-10T00:52:17.894Z,27.85
2023-04-10T00:54:44.821Z,28.02
2023-04-10T00:57:12.080Z,30.92
2023-04-10T00:59:38.998Z,29.75
2023-04-10T01:02:06.497Z,26.88
2023-04-10T01:04:34.783Z,27.83
2023-04-10T01:07:19.211Z,39.75
2023-04-10T01:10:02.616Z,32.13
2023-04-10T01:12:36.836Z,28.08
2023-04-10T01:15:20.367Z,30.45
2023-04-10T01:17:54.982Z,26.13
2023-04-10T01:20:28.126Z,28.42
2023-04-10T01:23:24.856Z,29.65
2023-04-10T01:26:00.119Z,27.42
2023-04-10T01:29:00.748Z,30.27
2023-04-10T01:31:30.845Z,29.95
2023-04-10T01:34:06.517Z,26.88
2023-04-10T01:36:43.917Z,29.15
2023-04-10T01:39:12.065Z,30.27
2023-04-10T01:41:42.167Z,26.95
2023-04-10T01:44:12.001Z,34.80
2023-04-10T01:46:39.688Z,30.95
2023-04-10T01:49:07.196Z,29.50
2023-04-10T01:51:35.750Z,31.45
2023-04-10T01:54:05.719Z,37.28
2023-04-10T01:56:34.235Z,28.05
2023-04-10T01:59:01.323Z,32.17
2023-04-10T02:01:30.185Z,30.45
2023-04-10T02:03:58.793Z,32.90
2023-04-10T02:06:56.020Z,32.88
2023-04-10T02:09:30.781Z,35.05
2023-04-10T02:12:04.787Z,35.88
2023-04-10T02:14:34.521Z,32.65
2023-04-10T02:17:02.792Z,36.22
2023-04-10T02:19:32.286Z,32.55
2023-04-10T02:21:59.444Z,35.72
2023-04-10T02:24:26.603Z,33.95
2023-04-10T02:26:53.966Z,39.10
2023-04-10T02:29:20.820Z,35.95
2023-04-10T02:31:47.846Z,37.05
2023-04-10T02:34:14.673Z,36.13
2023-04-10T02:36:41.644Z,35.67
2023-04-10T02:39:08.897Z,33.08
2023-04-10T02:41:35.679Z,36.28
2023-04-10T02:44:02.492Z,33.50
2023-04-10T02:46:29.751Z,37.35
2023-04-10T02:48:56.522Z,37.55
2023-04-10T02:51:23.237Z,36.92
2023-04-10T02:53:49.987Z,35.95
2023-04-10T02:56:16.821Z,34.97
2023-04-10T02:58:46.441Z,34.58
2023-04-10T03:01:13.894Z,35.85
2023-04-10T03:03:41.964Z,32.50
2023-04-10T03:06:10.071Z,33.53
2023-04-10T03:08:37.082Z,38.28
2023-04-10T03:11:04.396Z,37.17
2023-04-10T03:13:32.325Z,37.78
2023-04-10T03:15:59.132Z,41.95
2023-04-10T03:18:26.080Z,38.45
2023-04-10T03:20:52.847Z,37.22
2023-04-10T03:23:20.252Z,40.78
2023-04-10T03:25:51.612Z,37.20
2023-04-10T03:28:18.907Z,37.53
2023-04-10T03:30:45.918Z,39.58
2023-04-10T03:33:12.748Z,41.03
2023-04-10T03:35:39.558Z,39.20
2023-04-10T03:38:06.635Z,39.88
2023-04-10T03:40:34.503Z,41.97
2023-04-10T03:43:01.320Z,38.72
2023-04-10T03:45:28.091Z,40.35
2023-04-10T03:47:54.964Z,33.92
2023-04-10T03:50:21.876Z,43.83
2023-04-10T03:52:49.992Z,37.85
2023-04-10T03:55:20.044Z,40.88
2023-04-10T03:57:47.756Z,38.40
2023-04-10T04:00:16.938Z,40.95
2023-04-10T04:02:44.189Z,43.13
2023-04-10T04:05:11.183Z,41.30
2023-04-10T04:07:37.980Z,44.88
2023-04-10T04:10:05.426Z,39.63
2023-04-10T04:12:32.211Z,43.58
2023-04-10T04:14:58.954Z,38.00
2023-04-10T04:17:25.941Z,42.10
2023-04-10T04:19:52.818Z,38.75
2023-04-10T04:22:21.156Z,42.78
2023-04-10T04:24:47.889Z,38.53
2023-04-10T04:27:14.702Z,44.15
2023-04-10T04:29:42.149Z,40.65
2023-04-10T04:32:09.053Z,38.78
2023-04-10T04:34:35.885Z,40.25
2023-04-10T04:37:03.253Z,40.20
2023-04-10T04:39:30.014Z,40.78
2023-04-10T04:41:57.022Z,46.00
2023-04-10T04:44:23.817Z,37.03
2023-04-10T04:46:50.708Z,41.72
2023-04-10T04:49:17.563Z,41.70
2023-04-10T04:51:44.325Z,42.10
2023-04-10T04:54:11.137Z,41.00
2023-04-10T04:56:37.994Z,39.42
2023-04-10T04:59:04.753Z,39.58
2023-04-10T05:01:31.800Z,43.33
2023-04-10T05:03:58.703Z,41.20
2023-04-10T05:06:26.889Z,39.78
2023-04-10T05:08:53.872Z,38.17
2023-04-10T05:11:20.917Z,45.35
2023-04-10T05:13:47.703Z,42.00
2023-04-10T05:16:14.579Z,47.20
2023-04-10T05:18:41.861Z,42.08
2023-04-10T05:21:08.697Z,41.15
2023-04-10T05:23:35.472Z,38.60
2023-04-10T05:26:02.213Z,40.80
2023-04-10T05:28:29.284Z,47.08
2023-04-10T05:30:56.173Z,42.00
2023-04-10T05:33:22.960Z,40.00
2023-04-10T05:35:49.803Z,41.33
2023-04-10T05:38:16.574Z,38.13
2023-04-10T05:40:46.059Z,36.60
2023-04-10T05:43:12.876Z,39.83
2023-04-10T05:45:40.976Z,41.78
2023-04-10T05:48:07.754Z,38.72
2023-04-10T05:50:35.951Z,44.70
2023-04-10T05:53:02.873Z,38.72
2023-04-10T05:55:32.380Z,42.45
2023-04-10T05:57:59.874Z,37.28
2023-04-10T06:00:27.018Z,37.28
2023-04-10T06:02:53.848Z,35.15
2023-04-10T06:05:20.855Z,39.88
2023-04-10T06:07:47.642Z,37.33
2023-04-10T06:10:14.644Z,32.83
2023-04-10T06:12:42.014Z,37.65
2023-04-10T06:15:09.095Z,37.97
2023-04-10T06:17:41.784Z,34.13
2023-04-10T06:20:09.516Z,31.23
2023-04-10T06:22:36.210Z,36.30
2023-04-10T06:25:03.240Z,33.22
2023-04-10T06:27:30.049Z,33.00
2023-04-10T06:29:58.025Z,30.65
2023-04-10T06:32:24.992Z,29.23
2023-04-10T06:34:52.053Z,31.75
2023-04-10T06:37:19.115Z,30.30
2023-04-10T06:39:45.933Z,34.05
2023-04-10T06:42:12.941Z,28.65
2023-04-10T06:44:39.696Z,34.45
2023-04-10T06:47:07.082Z,30.58
2023-04-10T06:49:33.877Z,32.72
2023-04-10T06:52:00.690Z,31.77
2023-04-10T06:54:27.656Z,34.05
2023-04-10T06:56:59.081Z,32.80
2023-04-10T06:59:25.979Z,33.60
2023-04-10T07:01:52.837Z,30.10
2023-04-10T07:04:19.571Z,29.35
2023-04-10T07:06:46.744Z,29.38
2023-04-10T07:09:14.347Z,31.70
2023-04-10T07:23:48.395Z,31.30
2023-04-10T07:26:15.433Z,28.35
2023-04-10T07:28:42.334Z,29.90
2023-04-10T07:31:10.978Z,29.42
2023-04-10T07:33:39.099Z,29.52
2023-04-10T07:36:06.481Z,28.23
2023-04-10T07:38:34.559Z,24.80
2023-04-10T07:41:01.429Z,26.73
2023-04-10T07:43:28.174Z,24.92
2023-04-10T07:45:55.930Z,27.55
2023-04-10T07:48:22.922Z,27.27
2023-04-10T07:50:50.036Z,25.67
2023-04-10T07:53:17.112Z,25.92
2023-04-10T07:55:45.871Z,25.38
2023-04-10T07:58:12.664Z,26.67
2023-04-10T08:00:39.539Z,25.10
2023-04-10T08:03:07.608Z,24.20
2023-04-10T08:05:34.736Z,23.27
2023-04-10T08:08:01.586Z,22.90
2023-04-10T08:10:31.123Z,22.75
2023-04-10T08:12:57.965Z,21.60
2023-04-10T08:15:25.082Z,23.40
2023-04-10T08:17:52.325Z,22.08
2023-04-10T08:20:19.294Z,23.30
2023-04-10T08:22:46.269Z,20.63
2023-04-10T08:25:13.280Z,27.33
2023-04-10T08:27:40.051Z,22.38
2023-04-10T08:30:07.644Z,21.67
2023-04-10T08:32:34.486Z,21.30
2023-04-10T08:35:01.325Z,20.65
2023-04-10T08:37:28.247Z,20.52
2023-04-10T08:39:55.197Z,20.08
2023-04-10T08:42:22.772Z,21.98
2023-04-10T08:44:50.618Z,19.17
2023-04-10T08:47:21.565Z,18.95
2023-04-10T08:49:56.358Z,18.60
2023-04-10T08:52:25.650Z,19.13
2023-04-10T08:54:56.360Z,18.73
2023-04-10T08:57:24.162Z,19.55
2023-04-10T08:59:54.477Z,17.45
2023-04-10T09:02:22.385Z,17.42
2023-04-10T09:04:52.161Z,20.00
2023-04-10T09:07:19.172Z,19.90
2023-04-10T09:09:45.974Z,20.75
2023-04-10T09:12:14.495Z,18.92
2023-04-10T09:14:42.226Z,17.17
2023-04-10T09:17:15.041Z,18.75
2023-04-10T09:19:42.050Z,18.15
2023-04-10T09:22:09.693Z,16.13
2023-04-10T09:24:38.675Z,16.20
2023-04-10T09:27:06.738Z,17.67
2023-04-10T09:29:42.392Z,15.93
2023-04-10T09:32:09.235Z,16.63
2023-04-10T09:34:53.053Z,16.60
2023-04-10T09:37:22.800Z,15.15
2023-04-10T09:39:49.622Z,15.27
2023-04-10T09:42:16.516Z,16.13
2023-04-10T09:44:43.897Z,16.52
2023-04-10T09:47:23.472Z,14.95
2023-04-10T09:49:55.680Z,14.15
2023-04-10T09:52:28.007Z,14.20
2023-04-10T09:54:56.679Z,15.32
2023-04-10T09:57:25.149Z,15.13
2023-04-10T09:59:57.617Z,17.05
2023-04-10T10:02:26.516Z,14.30
2023-04-10T10:04:54.654Z,15.30
2023-04-10T10:07:23.703Z,15.25
2023-04-10T10:09:52.793Z,14.52
2023-04-10T10:12:34.372Z,16.85
2023-04-10T10:15:09.214Z,13.43
2023-04-10T10:17:45.868Z,13.75
2023-04-10T10:20:14.195Z,14.40
2023-04-10T10:22:42.205Z,13.88
2023-04-10T10:25:09.849Z,13.45
2023-04-10T10:27:41.901Z,13.18
2023-04-10T10:30:28.352Z,10.70
2023-04-10T10:32:58.998Z,12.68
2023-04-10T10:35:29.564Z,12.23
2023-04-10T10:38:00.698Z,12.75
2023-04-10T10:40:30.220Z,12.90
2023-04-10T10:43:11.274Z,12.57
2023-04-10T10:46:07.518Z,12.18
2023-04-10T10:48:34.360Z,18.88
2023-04-10T10:51:02.929Z,11.57
2023-04-10T10:53:45.603Z,11.25
2023-04-10T10:56:24.409Z,10.13
2023-04-10T10:58:57.738Z,10.23
2023-04-10T11:01:25.307Z,9.02
2023-04-10T11:03:52.562Z,9.38
2023-04-10T11:06:40.164Z,8.75
2023-04-10T11:09:07.245Z,8.77
2023-04-10T11:12:00.153Z,9.65
2023-04-10T11:14:27.340Z,8.60
2023-04-10T11:16:54.202Z,9.77
2023-04-10T11:19:23.903Z,10.75
2023-04-10T11:22:05.941Z,8.90
2023-04-10T11:25:10.598Z,9.55
2023-04-10T11:27:42.037Z,9.65
2023-04-10T11:30:35.016Z,8.23
2023-04-10T11:33:03.756Z,9.07
2023-04-10T11:35:31.868Z,9.18
2023-04-10T11:38:11.903Z,9.63
2023-04-10T11:40:54.814Z,9.68
2023-04-10T11:43:21.749Z,9.35
2023-04-10T11:45:48.774Z,9.65
2023-04-10T11:48:17.662Z,8.98
2023-04-10T11:50:44.670Z,9.18
2023-04-10T11:53:24.562Z,8.95
2023-04-10T11:55:52.113Z,8.77
2023-04-10T11:58:30.839Z,10.65
2023-04-10T12:00:58.349Z,10.43
2023-04-10T12:03:42.007Z,9.48
2023-04-10T12:06:11.992Z,9.15
2023-04-10T12:08:42.012Z,9.80
2023-04-10T12:11:11.546Z,10.50
2023-04-10T12:13:38.895Z,9.90
2023-04-10T12:16:08.159Z,8.85
2023-04-10T12:18:35.147Z,8.35
2023-04-10T12:21:02.590Z,7.30
2023-04-10T12:23:30.532Z,7.78
2023-04-10T12:26:12.730Z,8.27
2023-04-10T12:28:41.351Z,7.60
2023-04-10T12:31:08.966Z,7.45
2023-04-10T12:33:36.373Z,8.63
2023-04-10T12:36:03.392Z,6.78
2023-04-10T12:38:44.239Z,6.80
2023-04-10T12:41:12.225Z,8.27
2023-04-10T12:43:42.953Z,7.45
2023-04-10T12:46:11.217Z,6.63
2023-04-10T12:48:38.146Z,6.68
2023-04-10T12:51:05.211Z,7.40
2023-04-10T12:53:32.182Z,6.65
2023-04-10T12:56:01.705Z,8.23
2023-04-10T12:58:29.030Z,6.55
2023-04-10T13:00:56.755Z,7.90
2023-04-10T13:03:23.805Z,7.60
2023-04-10T13:05:52.229Z,6.60
2023-04-10T13:08:19.096Z,6.22
2023-04-10T13:10:46.133Z,6.35
2023-04-10T13:13:14.045Z,7.40
2023-04-10T13:15:41.228Z,5.63
2023-04-10T13:18:08.547Z,5.15
2023-04-10T13:20:38.329Z,6.68
2023-04-10T13:23:05.261Z,5.60
2023-04-10T13:25:34.031Z,5.00
2023-04-10T13:28:01.972Z,5.03
2023-04-10T13:30:29.718Z,4.65
2023-04-10T13:32:56.534Z,7.43
2023-04-10T13:35:23.719Z,4.60
2023-04-10T13:37:53.462Z,4.13
2023-04-10T13:40:21.548Z,3.90
2023-04-10T13:42:49.073Z,5.43
2023-04-10T13:45:16.274Z,5.22
2023-04-10T13:47:43.738Z,4.40
2023-04-10T13:50:10.993Z,4.13
2023-04-10T13:52:37.839Z,4.32
2023-04-10T13:55:05.117Z,5.40
2023-04-10T13:57:31.957Z,4.40
2023-04-10T13:59:58.906Z,4.53
2023-04-10T14:02:25.904Z,3.70
2023-04-10T14:04:52.767Z,4.22
2023-04-10T14:07:20.426Z,4.63
2023-04-10T14:09:47.663Z,4.38
2023-04-10T14:12:16.656Z,3.95
2023-04-10T14:14:44.832Z,4.22
2023-04-10T14:17:11.744Z,4.65
2023-04-10T14:19:39.366Z,5.03
2023-04-10T14:22:06.769Z,6.78
2023-04-10T14:24:34.130Z,5.75
2023-04-10T14:27:02.124Z,6.32
2023-04-10T14:29:37.402Z,4.00
2023-04-10T14:32:07.889Z,4.75
2023-04-10T14:34:34.778Z,4.95
2023-04-10T14:37:01.698Z,5.20
2023-04-10T14:39:28.549Z,5.03
2023-04-10T14:41:55.619Z,5.60
2023-04-10T14:44:22.375Z,4.47
2023-04-10T14:46:49.152Z,7.88
2023-04-10T14:49:16.072Z,4.68
2023-04-10T14:51:44.041Z,4.63
2023-04-10T14:54:11.529Z,6.15
2023-04-10T14:56:38.377Z,5.05
2023-04-10T14:59:05.261Z,5.38
2023-04-10T15:01:32.064Z,5.30
2023-04-10T15:03:59.110Z,5.35
2023-04-10T15:06:28.470Z,3.90
2023-04-10T15:08:56.424Z,5.97
2023-04-10T15:11:23.200Z,5.20
2023-04-10T15:13:50.245Z,4.88
2023-04-10T15:16:17.496Z,6.82
2023-04-10T15:18:47.790Z,5.90
2023-04-10T15:21:14.781Z,5.18
2023-04-10T15:23:41.591Z,4.32
2023-04-10T15:26:15.751Z,5.25
2023-04-10T15:28:43.478Z,4.30
2023-04-10T15:31:11.307Z,8.07
2023-04-10T15:33:39.516Z,5.05
2023-04-10T15:36:07.953Z,5.22
2023-04-10T15:38:37.973Z,6.15
2023-04-10T15:41:11.952Z,4.30
2023-04-10T15:43:39.148Z,5.97
2023-04-10T15:46:09.703Z,4.18
2023-04-10T15:48:36.550Z,5.40
2023-04-10T15:51:06.845Z,5.28
2023-04-10T15:53:34.923Z,5.47
2023-04-10T15:56:04.563Z,4.68
2023-04-10T15:58:31.465Z,4.70
2023-04-10T16:00:58.375Z,8.13
2023-04-10T16:03:29.436Z,4.55
2023-04-10T16:05:58.623Z,4.97
2023-04-10T16:08:26.510Z,5.72
2023-04-10T16:10:54.138Z,4.97
2023-04-10T16:13:21.240Z,4.70
2023-04-10T16:15:49.601Z,4.40
2023-04-10T16:18:16.918Z,5.03
2023-04-10T16:20:44.428Z,4.30
2023-04-10T16:23:11.563Z,4.70
2023-04-10T16:25:38.724Z,4.75
2023-04-10T16:28:08.205Z,4.78
2023-04-10T16:30:36.101Z,4.78
2023-04-10T16:33:04.476Z,3.85
2023-04-10T16:35:31.716Z,6.07
2023-04-10T16:37:59.020Z,5.60
2023-04-10T16:40:32.800Z,5.13
2023-04-10T16:43:02.125Z,5.28
2023-04-10T16:45:29.070Z,5.43
2023-04-10T16:47:56.114Z,4.95
2023-04-10T16:50:23.059Z,4.95
2023-04-10T16:52:50.588Z,5.15
2023-04-10T16:55:17.416Z,4.78
2023-04-10T16:57:44.621Z,4.80
2023-04-10T17:00:12.085Z,5.97
2023-04-10T17:02:38.873Z,5.03
2023-04-10T17:05:06.453Z,5.88
2023-04-10T17:07:33.207Z,4.82
2023-04-10T17:10:00.457Z,4.90
2023-04-10T17:12:27.430Z,4.63
2023-04-10T17:14:54.235Z,5.38
2023-04-10T17:17:21.092Z,5.22
2023-04-10T17:19:48.570Z,4.55
2023-04-10T17:22:20.244Z,6.50
2023-04-10T17:24:47.092Z,4.82
2023-04-10T17:27:13.937Z,5.95
2023-04-10T17:29:41.477Z,5.35
2023-04-10T17:32:09.131Z,4.70
2023-04-10T17:34:36.008Z,5.82
2023-04-10T17:37:02.839Z,5.53
2023-04-10T17:39:29.685Z,4.32
2023-04-10T17:41:57.729Z,4.97
2023-04-10T17:44:24.685Z,7.18
2023-04-10T17:46:53.701Z,4.95
2023-04-10T17:49:23.438Z,5.25
2023-04-10T17:51:50.541Z,7.07
2023-04-10T17:54:17.311Z,5.18
2023-04-10T17:56:44.248Z,5.93
2023-04-10T17:59:11.182Z,6.93
2023-04-10T18:01:38.192Z,5.68
2023-04-10T18:04:05.312Z,6.78
2023-04-10T18:06:32.447Z,5.75
2023-04-10T18:08:59.330Z,5.80
2023-04-10T18:11:26.196Z,7.32
2023-04-10T18:13:52.961Z,5.65
2023-04-10T18:16:19.940Z,5.53
2023-04-10T18:18:47.145Z,7.22
2023-04-10T18:21:14.206Z,7.80
2023-04-10T18:23:41.098Z,5.32
2023-04-10T18:26:08.163Z,5.30
2023-04-10T18:28:36.199Z,5.00
2023-04-10T18:31:03.143Z,6.85
2023-04-10T18:33:30.229Z,7.20
2023-04-10T18:36:00.153Z,6.32
2023-04-10T18:38:27.249Z,6.57
2023-04-10T18:40:57.953Z,6.30
2023-04-10T18:43:25.760Z,8.00
2023-04-10T18:45:52.793Z,6.28
2023-04-10T18:48:19.625Z,6.45
2023-04-10T18:50:46.441Z,6.70
2023-04-10T18:53:13.341Z,8.25
2023-04-10T18:55:40.236Z,7.00
2023-04-10T18:58:07.170Z,6.63
2023-04-10T19:00:34.432Z,7.65
2023-04-10T19:03:01.427Z,11.38
2023-04-10T19:05:32.664Z,8.32
2023-04-10T19:08:04.772Z,9.13
2023-04-10T19:10:32.585Z,8.30
2023-04-10T19:12:59.427Z,16.33
2023-04-10T19:15:26.476Z,11.13
2023-04-10T19:17:54.076Z,10.63
2023-04-10T19:20:50.970Z,11.60
2023-04-10T19:23:09.801Z,9.35
2023-04-10T19:25:36.589Z,11.88
2023-04-10T19:28:04.977Z,9.52
2023-04-10T19:30:31.821Z,9.73
2023-04-10T19:32:58.992Z,12.70
2023-04-10T19:35:25.882Z,9.40
2023-04-10T19:37:52.800Z,10.50
2023-04-10T19:40:19.709Z,9.75
2023-04-10T19:42:46.547Z,10.55
2023-04-10T19:45:13.718Z,10.05
2023-04-10T19:47:40.589Z,10.20
2023-04-10T19:50:08.288Z,12.85
2023-04-10T19:52:35.294Z,12.85
2023-04-10T19:55:02.436Z,12.00
2023-04-10T19:57:30.079Z,10.27
2023-04-10T19:59:56.963Z,10.65
2023-04-10T20:02:23.884Z,12.32
2023-04-10T20:04:50.882Z,11.20
2023-04-10T20:07:17.754Z,13.50
2023-04-10T20:09:44.789Z,12.85
2023-04-10T20:12:12.006Z,11.85
2023-04-10T20:14:38.821Z,14.02
2023-04-10T20:17:05.611Z,13.00
2023-04-10T20:19:32.397Z,11.07
2023-04-10T20:22:01.496Z,13.45
2023-04-10T20:24:29.197Z,12.07
2023-04-10T20:26:57.464Z,11.07
2023-04-10T20:29:24.324Z,10.77
2023-04-10T20:31:51.176Z,12.05
2023-04-10T20:34:18.001Z,12.27
2023-04-10T20:36:44.788Z,13.20
2023-04-10T20:39:12.055Z,11.98
2023-04-10T20:41:38.822Z,14.10
2023-04-10T20:44:06.775Z,13.13
2023-04-10T20:46:33.624Z,14.50
2023-04-10T20:49:03.842Z,12.02
2023-04-10T20:51:30.720Z,10.40
2023-04-10T20:53:57.468Z,9.40
2023-04-10T20:56:32.868Z,10.40
2023-04-10T20:59:07.343Z,12.02
2023-04-10T21:01:34.759Z,9.70
2023-04-10T21:04:02.232Z,12.65
2023-04-10T21:06:29.547Z,12.02
2023-04-10T21:08:56.451Z,11.27
2023-04-10T21:11:23.289Z,9.65
2023-04-10T21:13:50.037Z,8.23
2023-04-10T21:16:16.952Z,10.73
2023-04-10T21:18:47.940Z,9.63
2023-04-10T21:21:15.030Z,10.77
2023-04-10T21:23:41.994Z,12.10
2023-04-10T21:26:08.804Z,12.20
2023-04-10T21:28:35.715Z,10.35
2023-04-10T21:31:05.047Z,12.25
2023-04-10T21:33:32.921Z,11.60
2023-04-10T21:35:59.780Z,9.85
2023-04-10T21:38:26.873Z,11.95
2023-04-10T21:40:54.526Z,10.45
2023-04-10T21:43:22.272Z,10.57
2023-04-10T21:45:49.370Z,10.82
2023-04-10T21:48:16.422Z,9.63
2023-04-10T21:50:43.389Z,8.30
2023-04-10T21:53:10.283Z,8.50
2023-04-10T21:55:37.145Z,10.85
2023-04-10T21:58:04.497Z,9.15
2023-04-10T22:00:31.396Z,8.60
2023-04-10T22:02:58.292Z,8.57
2023-04-10T22:05:25.175Z,9.55
2023-04-10T22:07:52.498Z,10.25
2023-04-10T22:10:19.384Z,9.80
2023-04-10T22:12:48.554Z,8.90
2023-04-10T22:15:15.937Z,9.50
2023-04-10T22:17:43.487Z,10.30
2023-04-10T22:20:10.993Z,9.30
2023-04-10T22:22:37.818Z,10.07
2023-04-10T22:25:04.954Z,8.10
2023-04-10T22:27:33.026Z,8.48
2023-04-10T22:30:03.750Z,8.68
2023-04-10T22:32:32.030Z,10.10
2023-04-10T22:34:59.969Z,10.20
2023-04-10T22:37:27.439Z,14.23
2023-04-10T22:39:56.404Z,8.52
2023-04-10T22:42:23.713Z,6.95
2023-04-10T22:44:50.686Z,7.35
2023-04-10T22:47:18.119Z,7.20
2023-04-10T22:49:45.037Z,8.32
2023-04-10T22:52:16.355Z,8.60
2023-04-10T22:54:43.433Z,9.57
2023-04-10T22:57:10.206Z,7.05
2023-04-10T22:59:37.445Z,7.85
2023-04-10T23:02:04.514Z,7.57
2023-04-10T23:04:31.750Z,5.20
2023-04-10T23:06:58.611Z,7.50
2023-04-10T23:09:25.955Z,7.00
2023-04-10T23:11:52.746Z,7.93
2023-04-10T23:14:20.046Z,7.03
2023-04-10T23:19:19.543Z,5.70
2023-04-10T23:21:46.264Z,5.75
2023-04-10T23:24:12.989Z,7.22
2023-04-10T23:26:39.762Z,7.75
2023-04-10T23:29:06.555Z,11.13
2023-04-10T23:31:33.326Z,5.22
2023-04-10T23:34:00.099Z,4.97
2023-04-10T23:36:27.398Z,5.70
2023-04-10T23:38:54.384Z,5.45
2023-04-10T23:41:21.819Z,6.10
2023-04-10T23:43:48.661Z,6.00
2023-04-10T23:46:15.631Z,5.82
2023-04-10T23:48:42.445Z,8.25
2023-04-10T23:51:09.566Z,6.70
2023-04-10T23:53:36.540Z,6.90
2023-04-10T23:56:03.401Z,5.60
2023-04-10T23:58:30.135Z,11.50
